createdAt,value
2019-04-30T00:01:16.998Z,70.87
2019-04-30T00:03:50.453Z,71.05
2019-04-30T00:06:21.800Z,71.12
2019-04-30T00:08:55.080Z,71.18
2019-04-30T00:11:26.087Z,71.01
2019-04-30T00:13:58.946Z,70.98
2019-04-30T00:16:30.941Z,70.98
2019-04-30T00:19:03.249Z,70.95
2019-04-30T00:21:36.078Z,70.72
2019-04-30T00:24:10.250Z,70.74
2019-04-30T00:26:45.054Z,70.55
2019-04-30T00:29:19.262Z,70.41
2019-04-30T00:31:47.107Z,70.38
2019-04-30T00:34:18.624Z,70.47
2019-04-30T00:36:50.211Z,70.58
2019-04-30T00:39:21.779Z,70.65
2019-04-30T00:41:54.671Z,70.62
2019-04-30T00:44:28.366Z,70.65
2019-04-30T00:47:00.666Z,70.61
2019-04-30T00:49:35.055Z,70.66
2019-04-30T00:52:06.490Z,70.73
2019-04-30T00:54:38.875Z,71.00
2019-04-30T00:57:10.137Z,71.12
2019-04-30T00:59:44.664Z,71.34
2019-04-30T01:02:32.292Z,71.51
2019-04-30T01:05:10.146Z,71.67
2019-04-30T01:07:48.849Z,71.72
2019-04-30T01:10:19.626Z,71.67
2019-04-30T01:12:50.288Z,71.70
2019-04-30T01:15:21.806Z,71.78
2019-04-30T01:17:54.078Z,71.88
2019-04-30T01:20:46.470Z,72.10
2019-04-30T01:23:24.248Z,72.19
2019-04-30T01:25:55.535Z,72.39
2019-04-30T01:28:28.424Z,72.53
2019-04-30T01:31:01.931Z,72.59
2019-04-30T01:33:34.728Z,72.72
2019-04-30T01:36:09.694Z,72.80
2019-04-30T01:38:40.320Z,72.70
2019-04-30T01:41:12.516Z,72.52
2019-04-30T01:43:43.732Z,72.26
2019-04-30T01:46:14.898Z,72.25
2019-04-30T01:48:50.554Z,72.23
2019-04-30T01:51:25.430Z,72.33
2019-04-30T01:53:56.822Z,72.57
2019-04-30T01:56:32.611Z,73.17
2019-04-30T01:59:09.211Z,73.31
2019-04-30T02:01:45.184Z,73.65
2019-04-30T02:04:19.487Z,74.00
2019-04-30T02:06:50.869Z,73.92
2019-04-30T02:09:23.254Z,73.64
2019-04-30T02:11:54.400Z,73.21
2019-04-30T02:14:25.665Z,72.97
2019-04-30T02:16:56.694Z,72.84
2019-04-30T02:19:28.765Z,72.87
2019-04-30T02:22:00.777Z,73.05
2019-04-30T02:24:31.810Z,72.86
2019-04-30T02:27:02.940Z,72.65
2019-04-30T02:29:34.106Z,72.72
2019-04-30T02:32:05.336Z,72.69
2019-04-30T02:34:44.613Z,72.53
2019-04-30T02:37:20.869Z,72.52
2019-04-30T02:39:50.772Z,72.43
2019-04-30T02:42:22.497Z,72.57
2019-04-30T02:44:54.282Z,72.43
2019-04-30T02:47:30.277Z,71.95
2019-04-30T02:50:15.272Z,71.65
2019-04-30T02:52:40.171Z,71.69
2019-04-30T02:55:15.067Z,71.55
2019-04-30T02:57:46.229Z,71.50
2019-04-30T03:00:20.639Z,71.37
2019-04-30T03:02:51.748Z,71.25
2019-04-30T03:05:22.909Z,71.27
2019-04-30T03:07:53.980Z,71.28
2019-04-30T03:10:25.197Z,71.15
2019-04-30T03:12:56.381Z,71.24
2019-04-30T03:15:29.816Z,71.34
2019-04-30T03:18:02.655Z,71.25
2019-04-30T03:20:36.631Z,71.26
2019-04-30T03:23:09.872Z,71.17
2019-04-30T03:25:41.102Z,71.18
2019-04-30T03:28:13.488Z,71.16
2019-04-30T03:30:44.515Z,71.16
2019-04-30T03:33:15.684Z,71.21
2019-04-30T03:35:52.658Z,70.90
2019-04-30T03:38:20.383Z,70.97
2019-04-30T03:40:51.624Z,70.93
2019-04-30T03:43:22.767Z,70.76
2019-04-30T03:45:54.005Z,70.89
2019-04-30T03:48:25.169Z,70.87
2019-04-30T03:50:57.321Z,70.77
2019-04-30T03:53:29.901Z,70.76
2019-04-30T03:56:01.525Z,70.83
2019-04-30T03:58:32.673Z,71.08
2019-04-30T04:01:19.601Z,71.23
2019-04-30T04:04:00.340Z,71.41
2019-04-30T04:06:39.446Z,71.44
2019-04-30T04:09:15.416Z,71.46
2019-04-30T04:11:50.560Z,71.52
2019-04-30T04:14:20.868Z,71.42
2019-04-30T04:16:52.302Z,71.54
2019-04-30T04:19:23.299Z,71.20
2019-04-30T04:21:55.702Z,71.09
2019-04-30T04:24:26.840Z,71.06
2019-04-30T04:26:59.660Z,70.91
2019-04-30T04:29:30.929Z,70.71
2019-04-30T04:32:02.199Z,70.80
2019-04-30T04:34:33.450Z,70.64
2019-04-30T04:37:04.966Z,70.52
2019-04-30T04:39:36.226Z,70.36
2019-04-30T04:42:09.966Z,70.33
2019-04-30T04:44:41.536Z,70.27
2019-04-30T04:47:15.998Z,70.09
2019-04-30T04:49:53.010Z,70.20
2019-04-30T04:52:21.604Z,70.28
2019-04-30T04:54:54.285Z,70.21
2019-04-30T04:57:25.555Z,70.09
2019-04-30T05:00:03.471Z,70.13
2019-04-30T05:02:42.868Z,70.12
2019-04-30T05:05:14.155Z,70.04
2019-04-30T05:07:45.279Z,70.17
2019-04-30T05:10:16.451Z,70.23
2019-04-30T05:12:50.601Z,69.93
2019-04-30T05:15:20.629Z,69.59
2019-04-30T05:17:51.775Z,69.43
2019-04-30T05:20:22.936Z,69.17
2019-04-30T05:22:54.158Z,68.96
2019-04-30T05:25:25.530Z,68.74
2019-04-30T05:27:58.591Z,68.47
2019-04-30T05:30:30.636Z,68.27
2019-04-30T05:33:01.784Z,67.89
2019-04-30T05:35:33.038Z,67.19
2019-04-30T05:38:04.285Z,66.54
2019-04-30T05:40:35.485Z,65.75
2019-04-30T05:46:04.211Z,63.91
2019-04-30T05:48:35.313Z,63.67
2019-04-30T05:51:06.682Z,63.07
2019-04-30T05:53:39.349Z,62.95
2019-04-30T05:56:10.810Z,62.85
2019-04-30T05:58:42.234Z,62.97
2019-04-30T06:01:13.482Z,62.89
2019-04-30T06:03:45.213Z,62.69
2019-04-30T06:06:19.365Z,62.27
2019-04-30T06:09:06.195Z,61.67
2019-04-30T06:11:51.033Z,59.23
2019-04-30T06:14:30.167Z,56.96
2019-04-30T06:17:06.216Z,54.55
2019-04-30T06:19:39.150Z,52.72
2019-04-30T06:22:11.171Z,51.52
2019-04-30T06:24:42.635Z,50.01
2019-04-30T06:27:14.374Z,46.48
2019-04-30T06:29:46.036Z,45.08
2019-04-30T06:32:18.609Z,45.03
2019-04-30T06:34:50.143Z,41.01
2019-04-30T06:37:21.510Z,40.16
2019-04-30T06:39:52.642Z,41.54
2019-04-30T06:42:23.926Z,43.03
2019-04-30T06:44:55.282Z,44.17
2019-04-30T06:47:33.189Z,45.45
2019-04-30T06:50:01.329Z,46.74
2019-04-30T06:52:32.777Z,47.15
2019-04-30T06:55:05.028Z,47.83
2019-04-30T06:57:36.274Z,47.93
2019-04-30T07:00:09.868Z,47.08
2019-04-30T07:02:41.460Z,44.65
2019-04-30T07:05:12.924Z,41.67
2019-04-30T07:08:11.402Z,37.36
2019-04-30T07:10:41.424Z,28.68
2019-04-30T07:13:14.803Z,27.72
2019-04-30T07:15:45.973Z,27.43
2019-04-30T07:18:18.972Z,28.56
2019-04-30T07:20:50.274Z,27.34
2019-04-30T07:23:21.497Z,22.89
2019-04-30T07:25:52.728Z,20.25
2019-04-30T07:28:42.684Z,21.67
2019-04-30T07:31:10.264Z,23.61
2019-04-30T07:33:31.327Z,26.06
2019-04-30T07:36:02.715Z,26.34
2019-04-30T07:38:35.807Z,27.86
2019-04-30T07:41:07.026Z,28.78
2019-04-30T07:43:39.357Z,27.70
2019-04-30T07:46:10.690Z,24.19
2019-04-30T07:48:41.979Z,21.04
2019-04-30T07:51:13.755Z,17.17
2019-04-30T07:53:45.509Z,13.93
2019-04-30T07:56:25.569Z,14.88
2019-04-30T07:58:50.590Z,16.91
2019-04-30T08:01:21.756Z,19.04
2019-04-30T08:03:54.854Z,18.82
2019-04-30T08:06:26.857Z,19.10
2019-04-30T08:09:00.638Z,18.54
2019-04-30T08:11:34.495Z,18.58
2019-04-30T08:14:04.962Z,18.74
2019-04-30T08:16:38.530Z,20.34
2019-04-30T08:19:09.545Z,21.35
2019-04-30T08:21:40.675Z,22.29
2019-04-30T08:24:12.023Z,22.29
2019-04-30T08:26:43.247Z,23.35
2019-04-30T08:29:14.426Z,24.31
2019-04-30T08:31:45.687Z,25.05
2019-04-30T08:34:16.930Z,25.84
2019-04-30T08:36:48.940Z,26.21
2019-04-30T08:39:20.270Z,25.78
2019-04-30T08:41:51.418Z,25.83
2019-04-30T08:44:22.701Z,24.97
2019-04-30T08:46:53.906Z,22.16
2019-04-30T08:49:25.455Z,17.95
2019-04-30T08:51:58.679Z,15.17
2019-04-30T08:54:29.862Z,12.74
2019-04-30T08:57:01.153Z,10.29
2019-04-30T08:59:32.549Z,9.49
2019-04-30T09:02:13.667Z,8.30
2019-04-30T09:04:38.782Z,7.93
2019-04-30T09:07:10.230Z,6.93
2019-04-30T09:09:44.471Z,6.32
2019-04-30T09:12:16.646Z,6.40
2019-04-30T09:14:49.088Z,6.37
2019-04-30T09:17:20.612Z,6.45
2019-04-30T09:19:51.776Z,6.89
2019-04-30T09:22:22.812Z,7.58
2019-04-30T09:24:54.060Z,9.26
2019-04-30T09:27:25.308Z,11.39
2019-04-30T09:29:56.568Z,13.16
2019-04-30T09:32:29.104Z,14.99
2019-04-30T09:35:00.763Z,15.32
2019-04-30T09:37:31.905Z,14.08
2019-04-30T09:40:15.327Z,12.49
2019-04-30T09:42:39.069Z,10.91
2019-04-30T09:45:10.715Z,9.36
2019-04-30T09:47:42.187Z,9.01
2019-04-30T09:50:14.015Z,9.22
2019-04-30T09:52:45.421Z,8.97
2019-04-30T09:55:16.526Z,9.25
2019-04-30T09:57:48.813Z,8.70
2019-04-30T10:00:20.642Z,9.54
2019-04-30T10:02:51.769Z,11.10
2019-04-30T10:05:23.054Z,12.78
2019-04-30T10:07:54.169Z,14.55
2019-04-30T10:10:28.901Z,15.82
2019-04-30T10:13:00.273Z,16.57
2019-04-30T10:15:40.464Z,16.55
2019-04-30T10:18:11.833Z,16.85
2019-04-30T10:20:43.446Z,17.11
2019-04-30T10:23:15.214Z,16.65
2019-04-30T10:25:46.636Z,16.82
2019-04-30T10:28:19.635Z,17.03
2019-04-30T10:30:50.980Z,16.85
2019-04-30T10:33:22.277Z,16.72
2019-04-30T10:35:53.689Z,17.56
2019-04-30T10:38:24.752Z,15.67
2019-04-30T10:40:55.989Z,14.76
2019-04-30T10:43:29.072Z,14.73
2019-04-30T10:46:01.745Z,13.70
2019-04-30T10:48:33.041Z,12.67
2019-04-30T10:51:04.368Z,12.86
2019-04-30T10:53:35.846Z,14.27
2019-04-30T10:56:07.182Z,14.45
2019-04-30T10:58:38.429Z,15.44
2019-04-30T11:01:09.705Z,16.68
2019-04-30T11:03:42.910Z,17.19
2019-04-30T11:06:14.213Z,17.37
2019-04-30T11:08:45.441Z,17.52
2019-04-30T11:11:17.038Z,18.33
2019-04-30T11:13:48.260Z,19.28
2019-04-30T11:16:19.432Z,20.25
2019-04-30T11:18:50.728Z,20.52
2019-04-30T11:21:22.417Z,21.19
2019-04-30T11:23:53.832Z,21.31
2019-04-30T11:26:25.855Z,22.23
2019-04-30T11:28:57.642Z,23.28
2019-04-30T11:31:40.132Z,23.95
2019-04-30T11:34:11.506Z,25.25
2019-04-30T11:36:42.818Z,25.74
2019-04-30T11:39:16.147Z,26.63
2019-04-30T11:41:47.504Z,27.47
2019-04-30T11:44:30.342Z,28.59
2019-04-30T11:46:59.577Z,28.69
2019-04-30T11:49:31.060Z,28.25
2019-04-30T11:52:02.549Z,28.50
2019-04-30T11:54:33.638Z,28.37
2019-04-30T11:57:05.688Z,28.17
2019-04-30T11:59:37.064Z,28.18
2019-04-30T12:02:13.014Z,28.38
2019-04-30T12:04:44.241Z,28.47
2019-04-30T12:07:17.409Z,28.38
2019-04-30T12:10:02.255Z,28.13
2019-04-30T12:12:33.526Z,27.89
2019-04-30T12:15:06.125Z,28.48
2019-04-30T12:17:37.289Z,28.65
2019-04-30T12:20:09.924Z,28.79
2019-04-30T12:22:41.176Z,29.03
2019-04-30T12:25:12.519Z,28.85
2019-04-30T12:27:43.840Z,28.07
2019-04-30T12:30:15.713Z,28.07
2019-04-30T12:32:46.984Z,28.04
2019-04-30T12:35:18.421Z,28.62
2019-04-30T12:37:52.363Z,28.52
2019-04-30T12:40:28.712Z,27.75
2019-04-30T12:42:55.764Z,27.07
2019-04-30T12:45:27.040Z,26.35
2019-04-30T12:48:02.726Z,26.09
2019-04-30T12:50:35.700Z,25.07
2019-04-30T12:53:09.488Z,24.72
2019-04-30T12:56:00.398Z,24.58
2019-04-30T12:58:31.722Z,23.98
2019-04-30T13:01:03.368Z,23.82
2019-04-30T13:03:34.406Z,23.42
2019-04-30T13:06:06.200Z,23.09
2019-04-30T13:08:38.293Z,22.92
2019-04-30T13:11:12.773Z,22.93
2019-04-30T13:13:43.775Z,23.12
2019-04-30T13:16:15.717Z,23.66
2019-04-30T13:18:46.872Z,23.67
2019-04-30T13:21:18.439Z,24.16
2019-04-30T13:23:49.756Z,24.61
2019-04-30T13:26:20.928Z,24.96
2019-04-30T13:28:59.892Z,24.72
2019-04-30T13:31:31.225Z,24.46
2019-04-30T13:34:20.647Z,24.82
2019-04-30T13:36:51.914Z,25.02
2019-04-30T13:39:26.981Z,25.18
2019-04-30T13:42:00.026Z,25.50
2019-04-30T13:44:35.700Z,26.33
2019-04-30T13:47:10.692Z,26.89
2019-04-30T13:49:40.117Z,27.39
2019-04-30T13:52:11.291Z,27.42
2019-04-30T13:54:42.399Z,27.57
2019-04-30T13:57:13.564Z,27.66
2019-04-30T13:59:44.915Z,27.07
2019-04-30T14:02:15.978Z,26.82
2019-04-30T14:04:49.956Z,27.35
2019-04-30T14:07:40.312Z,27.18
2019-04-30T14:10:12.058Z,27.34
2019-04-30T14:12:45.176Z,27.30
2019-04-30T14:15:16.563Z,27.32
2019-04-30T14:17:49.422Z,27.73
2019-04-30T14:20:20.768Z,27.87
2019-04-30T14:22:52.023Z,28.51
2019-04-30T14:25:23.057Z,28.51
2019-04-30T14:27:54.922Z,28.01
2019-04-30T14:30:26.345Z,27.40
2019-04-30T14:32:59.329Z,27.33
2019-04-30T14:35:30.485Z,27.66
2019-04-30T14:38:01.926Z,27.66
2019-04-30T14:40:34.039Z,27.56
2019-04-30T14:43:09.866Z,27.90
2019-04-30T14:46:01.738Z,28.17
2019-04-30T14:48:35.901Z,28.06
2019-04-30T14:51:07.779Z,27.75
2019-04-30T14:53:48.865Z,27.55
2019-04-30T14:56:33.640Z,26.86
2019-04-30T14:59:09.199Z,27.47
2019-04-30T15:01:49.096Z,27.89
2019-04-30T15:04:21.810Z,28.11
2019-04-30T15:06:52.977Z,27.94
2019-04-30T15:09:24.536Z,28.19
2019-04-30T15:11:56.180Z,28.40
2019-04-30T15:14:27.310Z,28.68
2019-04-30T15:16:58.588Z,29.13
2019-04-30T15:19:29.831Z,29.42
2019-04-30T15:22:03.886Z,29.72
2019-04-30T15:24:35.421Z,29.90
2019-04-30T15:27:06.648Z,30.92
2019-04-30T15:29:39.177Z,31.61
2019-04-30T15:32:10.552Z,32.10
2019-04-30T15:34:42.493Z,31.70
2019-04-30T15:37:21.657Z,31.04
2019-04-30T15:39:46.814Z,31.44
2019-04-30T15:42:20.324Z,32.25
2019-04-30T15:44:51.497Z,33.25
2019-04-30T15:47:23.487Z,33.50
2019-04-30T15:49:54.748Z,33.33
2019-04-30T15:52:25.887Z,32.94
2019-04-30T15:54:58.903Z,32.39
2019-04-30T15:57:30.264Z,32.89
2019-04-30T16:00:03.165Z,32.97
2019-04-30T16:02:56.534Z,33.98
2019-04-30T16:05:26.310Z,34.42
2019-04-30T16:07:59.549Z,34.69
2019-04-30T16:10:39.790Z,35.42
2019-04-30T16:13:12.930Z,35.99
2019-04-30T16:15:44.268Z,36.19
2019-04-30T16:18:15.715Z,37.10
2019-04-30T16:20:46.981Z,37.51
2019-04-30T16:23:19.146Z,37.76
2019-04-30T16:25:50.371Z,37.94
2019-04-30T16:28:21.538Z,37.95
2019-04-30T16:30:52.785Z,38.09
2019-04-30T16:33:24.374Z,38.47
2019-04-30T16:35:55.480Z,38.67
2019-04-30T16:38:28.830Z,38.65
2019-04-30T16:40:59.663Z,38.78
2019-04-30T16:43:30.965Z,39.08
2019-04-30T16:46:03.552Z,39.45
2019-04-30T16:48:34.960Z,40.09
2019-04-30T16:51:06.239Z,40.62
2019-04-30T16:53:38.346Z,40.71
2019-04-30T16:56:10.488Z,41.08
2019-04-30T16:58:57.726Z,41.31
2019-04-30T17:01:30.693Z,41.56
2019-04-30T17:04:16.868Z,41.41
2019-04-30T17:06:58.843Z,41.52
2019-04-30T17:09:44.066Z,41.76
2019-04-30T17:12:32.435Z,42.04
2019-04-30T17:15:13.231Z,42.74
2019-04-30T17:17:44.657Z,43.17
2019-04-30T17:20:16.052Z,43.35
2019-04-30T17:22:49.504Z,43.76
2019-04-30T17:25:20.655Z,43.80
2019-04-30T17:27:52.106Z,44.07
2019-04-30T17:30:23.639Z,44.65
2019-04-30T17:32:54.999Z,45.07
2019-04-30T17:35:26.357Z,45.39
2019-04-30T17:37:57.775Z,45.59
2019-04-30T17:40:29.219Z,45.96
2019-04-30T17:43:00.456Z,46.38
2019-04-30T17:45:31.738Z,46.61
2019-04-30T17:48:03.102Z,46.90
2019-04-30T17:50:34.533Z,47.15
2019-04-30T17:53:05.974Z,47.43
2019-04-30T17:55:39.092Z,47.52
2019-04-30T17:58:10.568Z,47.82
2019-04-30T18:00:44.811Z,47.88
2019-04-30T18:03:15.957Z,48.04
2019-04-30T18:05:49.074Z,48.16
2019-04-30T18:08:21.474Z,48.45
2019-04-30T18:10:53.102Z,48.59
2019-04-30T18:13:24.329Z,48.92
2019-04-30T18:15:55.496Z,49.34
2019-04-30T18:18:28.525Z,49.59
2019-04-30T18:21:04.204Z,49.86
2019-04-30T18:23:42.960Z,50.25
2019-04-30T18:26:17.025Z,50.40
2019-04-30T18:28:48.158Z,50.46
2019-04-30T18:31:19.297Z,50.78
2019-04-30T18:33:51.433Z,51.00
2019-04-30T18:36:22.896Z,51.26
2019-04-30T18:38:54.251Z,51.45
2019-04-30T18:41:26.652Z,51.81
2019-04-30T18:43:59.653Z,51.97
2019-04-30T18:46:31.168Z,52.08
2019-04-30T18:49:02.612Z,52.32
2019-04-30T18:51:39.333Z,52.61
2019-04-30T18:54:07.202Z,52.73
2019-04-30T18:56:38.976Z,52.97
2019-04-30T18:59:10.208Z,53.11
2019-04-30T19:01:41.657Z,53.38
2019-04-30T19:04:13.013Z,53.73
2019-04-30T19:06:44.264Z,53.86
2019-04-30T19:09:32.701Z,54.01
2019-04-30T19:12:06.151Z,54.22
2019-04-30T19:14:41.832Z,54.30
2019-04-30T19:17:19.441Z,54.56
2019-04-30T19:19:52.818Z,54.64
2019-04-30T19:22:24.117Z,54.95
2019-04-30T19:24:58.525Z,55.08
2019-04-30T19:27:29.671Z,55.28
2019-04-30T19:30:02.254Z,55.56
2019-04-30T19:32:33.646Z,55.61
2019-04-30T19:35:06.170Z,55.79
2019-04-30T19:37:38.622Z,55.99
2019-04-30T19:40:12.009Z,56.16
2019-04-30T19:42:43.150Z,56.46
2019-04-30T19:45:14.688Z,56.66
2019-04-30T19:47:45.973Z,56.69
2019-04-30T19:50:19.143Z,56.85
2019-04-30T19:52:50.381Z,56.98
2019-04-30T19:55:22.635Z,56.94
2019-04-30T19:57:53.931Z,56.98
2019-04-30T20:00:25.171Z,57.21
2019-04-30T20:02:58.067Z,57.25
2019-04-30T20:05:29.980Z,57.41
2019-04-30T20:08:01.197Z,57.60
2019-04-30T20:10:32.572Z,57.61
2019-04-30T20:13:03.901Z,57.85
2019-04-30T20:15:35.169Z,57.98
2019-04-30T20:18:08.838Z,58.23
2019-04-30T20:20:41.471Z,58.51
2019-04-30T20:23:13.721Z,58.81
2019-04-30T20:25:44.891Z,58.93
2019-04-30T20:28:15.930Z,59.15
2019-04-30T20:30:48.956Z,59.57
2019-04-30T20:33:20.016Z,59.53
2019-04-30T20:35:53.366Z,59.71
2019-04-30T20:38:26.466Z,59.87
2019-04-30T20:41:02.815Z,60.02
2019-04-30T20:43:30.764Z,60.21
2019-04-30T20:46:01.969Z,60.25
2019-04-30T20:48:33.276Z,60.34
2019-04-30T20:51:04.467Z,60.79
2019-04-30T20:53:35.499Z,60.74
2019-04-30T20:56:06.679Z,60.86
2019-04-30T20:58:40.484Z,61.19
2019-04-30T21:01:10.732Z,61.44
2019-04-30T21:03:41.930Z,61.55
2019-04-30T21:06:13.396Z,61.74
2019-04-30T21:08:44.798Z,62.09
2019-04-30T21:11:16.136Z,62.38
2019-04-30T21:13:49.120Z,62.41
2019-04-30T21:16:20.557Z,62.56
2019-04-30T21:18:52.817Z,62.76
2019-04-30T21:21:23.926Z,62.88
2019-04-30T21:23:55.085Z,63.00
2019-04-30T21:26:26.219Z,63.13
2019-04-30T21:29:10.418Z,63.07
2019-04-30T21:31:38.724Z,63.16
2019-04-30T21:34:29.342Z,63.49
2019-04-30T21:37:00.630Z,63.68
2019-04-30T21:39:32.299Z,63.96
2019-04-30T21:42:03.522Z,63.99
2019-04-30T21:44:34.696Z,64.08
2019-04-30T21:47:05.872Z,64.08
2019-04-30T21:49:37.175Z,64.28
2019-04-30T21:52:09.462Z,64.37
2019-04-30T21:54:40.665Z,64.48
2019-04-30T21:57:11.732Z,64.54
2019-04-30T21:59:42.870Z,64.65
2019-04-30T22:02:14.258Z,64.78
2019-04-30T22:04:45.519Z,64.92
2019-04-30T22:07:19.474Z,65.10
2019-04-30T22:09:50.569Z,65.17
2019-04-30T22:12:21.849Z,65.12
2019-04-30T22:14:52.994Z,65.07
2019-04-30T22:17:24.117Z,65.23
2019-04-30T22:19:55.332Z,65.36
2019-04-30T22:22:26.480Z,65.47
2019-04-30T22:24:59.611Z,65.64
2019-04-30T22:27:32.219Z,66.14
2019-04-30T22:30:05.074Z,66.48
2019-04-30T22:32:36.319Z,66.47
2019-04-30T22:35:27.388Z,66.45
2019-04-30T22:38:06.284Z,66.41
2019-04-30T22:40:39.234Z,66.71
2019-04-30T22:43:10.806Z,66.66
2019-04-30T22:45:50.108Z,66.78
2019-04-30T22:48:21.209Z,66.90
2019-04-30T22:50:52.388Z,66.83
2019-04-30T22:53:23.403Z,66.85
2019-04-30T22:55:54.481Z,67.01
2019-04-30T22:58:25.686Z,67.00
2019-04-30T23:01:05.252Z,67.10
2019-04-30T23:03:36.584Z,66.85
2019-04-30T23:06:07.839Z,66.84
2019-04-30T23:08:39.096Z,66.71
2019-04-30T23:11:10.237Z,66.56
2019-04-30T23:13:41.304Z,66.62
2019-04-30T23:16:12.936Z,66.37
2019-04-30T23:18:44.200Z,66.57
2019-04-30T23:21:15.532Z,66.93
2019-04-30T23:23:46.714Z,66.67
2019-04-30T23:26:18.945Z,66.92
2019-04-30T23:28:49.999Z,66.68
2019-04-30T23:31:21.124Z,66.83
2019-04-30T23:33:52.331Z,66.76
2019-04-30T23:36:23.530Z,66.94
2019-04-30T23:38:54.699Z,66.88
2019-04-30T23:41:25.873Z,66.79
2019-04-30T23:43:57.079Z,66.80
2019-04-30T23:46:28.217Z,66.86
2019-04-30T23:49:01.308Z,66.98
2019-04-30T23:51:32.673Z,67.21
2019-04-30T23:54:03.890Z,67.38
2019-04-30T23:56:35.164Z,67.51
2019-04-30T23:59:06.282Z,67.76
